Time;durP1;ratioP1;P1;durP2;ratioP2;P2;SDS_P1;SDS_P2;PMS_P1;PMS_P2;Temp;Humidity;BMP_temperature;BMP_pressure;BME280_temperature;BME280_humidity;BME280_pressure;Samples;Min_cycle;Max_cycle;Signal;HPM_P1;HPM_P2
2022/12/29 00:16:13;;;;;;;3.58;1.90;;;;;;;16.70;57.03;97641.69;5120884;28;20058;-29
2022/12/29 00:18:38;;;;;;;5.07;2.30;;;;;;;16.70;56.75;97636.97;5114607;28;20035;-29
2022/12/29 00:45:42;;;;;;;5.53;2.80;;;;;;;16.64;57.22;97641.47;5115362;28;20030;-29
2022/12/29 00:48:07;;;;;;;6.00;2.90;;;;;;;16.68;57.08;97636.69;5115138;28;20110;-29
2022/12/29 00:50:32;;;;;;;6.22;2.72;;;;;;;16.64;56.94;97633.25;5115096;28;20058;-31
2022/12/29 00:52:58;;;;;;;5.80;2.75;;;;;;;16.68;56.95;97633.94;5115001;28;20032;-30
2022/12/29 00:55:23;;;;;;;6.18;2.50;;;;;;;16.68;56.85;97633.16;5125861;27;20054;-29
2022/12/29 00:57:49;;;;;;;6.63;2.88;;;;;;;16.69;56.76;97631.97;5130894;27;20026;-29
2022/12/29 01:00:14;;;;;;;4.10;2.33;;;;;;;16.65;56.96;97639.50;5108766;27;20110;-30
2022/12/29 01:02:40;;;;;;;4.47;2.70;;;;;;;16.67;56.72;97643.34;5116411;27;20045;-29
2022/12/29 01:05:05;;;;;;;5.03;3.08;;;;;;;16.67;56.80;97640.63;5096538;28;20023;-29
2022/12/29 01:07:31;;;;;;;5.05;2.70;;;;;;;16.62;56.86;97634.88;5114719;28;20049;-30
2022/12/29 01:10:11;;;;;;;6.10;2.65;;;;;;;16.64;56.70;97636.00;5096320;28;20074;-29
2022/12/29 01:12:40;;;;;;;3.63;2.30;;;;;;;16.64;56.85;97638.75;5120993;27;20027;-31
2022/12/29 01:15:07;;;;;;;6.65;2.90;;;;;;;16.62;56.82;97627.44;5135313;27;20030;-30
2022/12/29 01:17:32;;;;;;;4.93;2.55;;;;;;;16.63;56.94;97641.91;5114241;27;20106;-30
2022/12/29 01:19:58;;;;;;;5.32;2.50;;;;;;;16.64;57.02;97632.50;5114707;28;20027;-29
2022/12/29 01:22:23;;;;;;;3.03;2.50;;;;;;;16.59;57.10;97635.75;5114468;28;20053;-29
2022/12/29 01:24:49;;;;;;;4.28;2.70;;;;;;;16.63;56.99;97637.22;5128266;27;20015;-29
2022/12/29 01:27:14;;;;;;;4.63;2.63;;;;;;;16.59;56.92;97636.50;5114414;28;20030;-29
2022/12/29 01:29:40;;;;;;;4.80;2.80;;;;;;;16.59;57.08;97635.75;5114386;28;20024;-29
2022/12/29 01:32:05;;;;;;;6.25;2.90;;;;;;;16.57;56.94;97636.16;5114590;28;20031;-29
2022/12/29 01:34:31;;;;;;;4.25;2.33;;;;;;;16.56;57.16;97628.41;5114492;28;20027;-30
2022/12/29 01:36:56;;;;;;;4.32;2.45;;;;;;;16.54;57.06;97634.31;5114244;27;20024;-29
2022/12/29 01:39:21;;;;;;;4.78;2.67;;;;;;;16.55;57.14;97629.63;5114184;28;20072;-29
2022/12/29 01:41:47;;;;;;;4.63;2.63;;;;;;;16.62;56.91;97630.19;5114012;28;20020;-30
2022/12/29 01:44:43;;;;;;;3.88;2.58;;;;;;;16.57;57.24;97632.69;5114116;28;20019;-30
2022/12/29 01:47:09;;;;;;;4.32;2.63;;;;;;;16.56;57.16;97626.44;5124145;27;20027;-29
2022/12/29 01:49:34;;;;;;;5.35;2.78;;;;;;;16.60;56.94;97626.31;5120525;27;20507;-29
2022/12/29 01:52:05;;;;;;;4.88;2.60;;;;;;;16.57;56.94;97622.47;5124737;27;20110;-30
2022/12/29 01:54:37;;;;;;;3.75;2.70;;;;;;;16.56;56.94;97631.91;5114392;28;20020;-28
2022/12/29 01:57:08;;;;;;;4.05;2.50;;;;;;;16.53;56.98;97627.31;5123262;27;20039;-29
2022/12/29 01:59:42;;;;;;;4.68;2.60;;;;;;;16.55;57.02;97622.16;5131189;27;20023;-29
2022/12/29 02:02:08;;;;;;;5.57;3.10;;;;;;;16.51;57.22;97625.00;5121148;27;20035;-29
2022/12/29 02:04:35;;;;;;;5.28;2.72;;;;;;;16.54;57.00;97617.91;5108007;28;20379;-29
2022/12/29 02:07:10;;;;;;;3.75;2.83;;;;;;;16.58;56.96;97623.25;5107845;27;20023;-29
2022/12/29 02:09:36;;;;;;;5.10;2.50;;;;;;;16.52;56.94;97621.06;5113673;28;20062;-29
2022/12/29 02:12:01;;;;;;;5.70;2.80;;;;;;;16.50;57.00;97619.97;5107414;27;20027;-29
2022/12/29 02:14:28;;;;;;;4.68;3.08;;;;;;;16.50;57.09;97617.22;5126120;27;20070;-29
2022/12/29 02:17:12;;;;;;;5.88;2.92;;;;;;;16.52;56.92;97617.56;5113452;28;20081;-31
2022/12/29 02:19:59;;;;;;;5.30;3.20;;;;;;;16.49;57.13;97621.94;5113568;28;20028;-31
2022/12/29 02:22:43;;;;;;;6.28;3.10;;;;;;;16.49;57.15;97621.16;5113515;28;20049;-30
2022/12/29 02:25:20;;;;;;;3.65;2.92;;;;;;;16.51;57.03;97621.50;5113244;28;20046;-29
2022/12/29 02:27:55;;;;;;;4.72;2.85;;;;;;;16.51;56.97;97619.53;5113303;28;20401;-29
2022/12/29 02:30:42;;;;;;;7.63;3.10;;;;;;;16.45;57.09;97626.75;5112891;28;20080;-29
2022/12/29 02:33:20;;;;;;;7.43;3.08;;;;;;;16.45;57.05;97618.53;5113282;28;20047;-31
2022/12/29 02:35:52;;;;;;;4.25;2.60;;;;;;;16.48;57.17;97614.91;5112975;28;20110;-29
2022/12/29 02:38:29;;;;;;;3.42;2.92;;;;;;;16.51;56.92;97622.28;5112973;28;20035;-29
2022/12/29 02:41:24;;;;;;;4.20;2.65;;;;;;;16.45;57.32;97615.00;5113093;28;20049;-29
2022/12/29 02:43:55;;;;;;;4.35;2.80;;;;;;;16.46;57.14;97616.56;5100736;28;20360;-29
2022/12/29 02:46:43;;;;;;;4.32;2.65;;;;;;;16.46;57.07;97617.31;5112909;28;20372;-30
2022/12/29 02:49:15;;;;;;;5.00;3.13;;;;;;;16.48;57.07;97614.16;5112457;27;20059;-29
2022/12/29 02:51:58;;;;;;;4.30;2.67;;;;;;;16.49;57.15;97616.47;5112912;28;20055;-29
2022/12/29 02:54:42;;;;;;;4.93;2.88;;;;;;;16.47;57.12;97612.63;5094323;28;20035;-29
2022/12/29 02:57:22;;;;;;;4.25;2.67;;;;;;;16.45;57.21;97604.06;5122938;27;20107;-29
2022/12/29 03:00:01;;;;;;;3.95;2.88;;;;;;;16.43;56.99;97606.50;5112704;28;20023;-29
2022/12/29 03:02:32;;;;;;;4.05;2.78;;;;;;;16.38;57.46;97607.78;5111866;28;20034;-29
2022/12/29 03:05:24;;;;;;;4.43;2.80;;;;;;;16.41;57.55;97604.19;5094003;28;20019;-29
2022/12/29 03:08:26;;;;;;;4.35;2.63;;;;;;;16.37;57.63;97600.78;5080937;28;20128;-29
2022/12/29 03:10:58;;;;;;;3.28;2.65;;;;;;;16.34;57.69;97600.88;5112522;28;20028;-29
2022/12/29 03:16:47;;;;;;;4.38;2.70;;;;;;;16.38;57.60;97593.34;5112435;28;20105;-29
2022/12/29 03:19:30;;;;;;;4.43;2.85;;;;;;;16.33;57.65;97610.28;5098282;28;20067;-30
2022/12/29 03:22:26;;;;;;;7.30;3.45;;;;;;;16.31;57.75;97608.00;5128788;27;20470;-29
2022/12/29 03:24:56;;;;;;;3.17;2.53;;;;;;;16.29;57.85;97598.69;5132449;27;20376;-29
2022/12/29 03:27:28;;;;;;;4.78;2.90;;;;;;;16.35;57.53;97594.19;5132398;27;20023;-29
2022/12/29 03:30:01;;;;;;;3.95;2.95;;;;;;;16.30;57.83;97601.00;5132256;27;20027;-29
2022/12/29 03:32:37;;;;;;;6.10;3.47;;;;;;;16.27;58.03;97598.34;5132697;27;20045;-31
2022/12/29 03:35:05;;;;;;;4.43;2.88;;;;;;;16.34;57.72;97600.88;5127952;27;20786;-29
2022/12/29 03:37:37;;;;;;;3.38;2.45;;;;;;;16.26;57.76;97594.09;5111964;28;20031;-29
2022/12/29 03:40:04;;;;;;;3.50;2.63;;;;;;;16.32;57.91;97595.84;5111963;28;20365;-29
2022/12/29 03:42:34;;;;;;;3.95;2.45;;;;;;;16.35;57.70;97588.72;5111774;28;20028;-29
2022/12/29 03:45:00;;;;;;;4.50;2.72;;;;;;;16.34;57.71;97592.66;5111727;28;20030;-29
2022/12/29 03:47:25;;;;;;;5.22;2.58;;;;;;;16.33;57.68;97591.13;5111597;28;20024;-28
2022/12/29 03:49:52;;;;;;;5.32;2.55;;;;;;;16.34;57.87;97592.66;5111948;28;20102;-29
2022/12/29 03:52:18;;;;;;;5.30;2.42;;;;;;;16.21;58.25;97595.38;5111610;28;20035;-28
2022/12/29 03:54:44;;;;;;;4.93;2.40;;;;;;;16.21;58.23;97592.66;5111475;28;20023;-29
2022/12/29 03:57:10;;;;;;;4.10;2.67;;;;;;;16.28;57.93;97592.44;5111498;27;20429;-29
2022/12/29 03:59:36;;;;;;;4.88;2.28;;;;;;;16.25;58.04;97584.34;5114258;28;20076;-29
2022/12/29 04:02:02;;;;;;;5.65;2.63;;;;;;;16.31;57.99;97601.78;5119135;28;20039;-29
2022/12/29 04:04:27;;;;;;;3.72;2.63;;;;;;;16.29;57.87;97599.47;5111602;28;20417;-30
2022/12/29 04:06:53;;;;;;;4.10;2.35;;;;;;;16.30;58.11;97597.50;5111450;28;20024;-29
2022/12/29 04:09:18;;;;;;;4.93;2.53;;;;;;;16.26;58.05;97596.81;5112334;28;20031;-30
2022/12/29 04:11:44;;;;;;;3.15;2.17;;;;;;;16.23;58.27;97601.19;5113359;28;20063;-29
2022/12/29 04:14:09;;;;;;;4.82;2.40;;;;;;;16.23;58.28;97597.69;5115653;28;20036;-29
2022/12/29 04:16:38;;;;;;;6.13;2.25;;;;;;;16.30;58.01;97598.25;5115798;27;20055;-29
2022/12/29 04:19:05;;;;;;;2.88;2.22;;;;;;;16.27;58.08;97595.63;5135264;27;20478;-29
2022/12/29 04:21:30;;;;;;;2.30;1.80;;;;;;;16.28;58.03;97608.09;5105048;28;20171;-29
2022/12/29 04:23:56;;;;;;;4.80;2.17;;;;;;;16.29;58.13;97606.91;5129083;27;20023;-30
2022/12/29 04:26:21;;;;;;;4.45;2.05;;;;;;;16.18;58.49;97607.22;5115675;28;20027;-29
2022/12/29 04:28:47;;;;;;;3.10;2.00;;;;;;;16.20;58.37;97609.50;5122101;27;20022;-29
2022/12/29 04:31:12;;;;;;;4.15;2.35;;;;;;;16.22;58.53;97609.84;5117782;28;20026;-28
2022/12/29 04:33:37;;;;;;;5.43;2.00;;;;;;;16.31;58.31;97609.97;5117618;27;20026;-29
2022/12/29 04:36:03;;;;;;;2.53;2.03;;;;;;;16.27;58.34;97610.06;5117481;28;20027;-29
2022/12/29 04:38:29;;;;;;;3.20;1.77;;;;;;;16.23;58.49;97614.88;5122710;27;20027;-29
2022/12/29 04:40:58;;;;;;;4.28;2.05;;;;;;;16.20;58.51;97607.53;5125970;27;20023;-29
2022/12/29 04:43:30;;;;;;;4.22;2.20;;;;;;;16.31;58.07;97609.97;5117434;28;20416;-28
2022/12/29 04:45:55;;;;;;;2.67;1.70;;;;;;;16.26;58.52;97614.00;5117369;28;20103;-29
2022/12/29 04:48:21;;;;;;;3.10;2.10;;;;;;;16.24;58.32;97621.13;5117221;28;20030;-29
2022/12/29 04:50:49;;;;;;;2.88;1.65;;;;;;;16.23;58.61;97612.13;5130687;27;20019;-29
2022/12/29 04:53:16;;;;;;;3.15;1.88;;;;;;;16.23;58.63;97611.38;5117326;28;20032;-28
2022/12/29 04:55:41;;;;;;;3.33;1.92;;;;;;;16.28;58.42;97616.31;5116719;28;20050;-29
2022/12/29 04:58:07;;;;;;;3.63;1.80;;;;;;;16.27;58.67;97610.06;5117145;28;20027;-29
2022/12/29 05:00:32;;;;;;;1.98;1.77;;;;;;;16.26;58.62;97615.97;5117176;28;20047;-29
2022/12/29 05:02:58;;;;;;;2.58;1.98;;;;;;;16.25;58.50;97619.91;5123611;27;20019;-28
2022/12/29 05:05:23;;;;;;;2.72;1.90;;;;;;;16.26;58.48;97615.97;5124581;27;20111;-29
2022/12/29 05:07:49;;;;;;;2.42;1.70;;;;;;;16.30;58.49;97611.19;5130900;27;20051;-29
2022/12/29 05:10:14;;;;;;;4.97;1.92;;;;;;;16.34;58.35;97615.34;5117023;28;20023;-29
2022/12/29 05:12:40;;;;;;;4.32;1.98;;;;;;;16.27;58.49;97620.25;5116518;28;20379;-28
2022/12/29 05:15:07;;;;;;;3.67;1.90;;;;;;;16.33;58.28;97613.03;5116614;28;20073;-28
2022/12/29 05:17:33;;;;;;;3.75;2.10;;;;;;;16.15;58.83;97619.78;5116466;28;20480;-28
2022/12/29 05:19:59;;;;;;;3.03;1.73;;;;;;;16.24;58.82;97619.16;5117170;28;20059;-28
2022/12/29 05:22:24;;;;;;;2.55;1.83;;;;;;;16.17;58.87;97611.91;5116628;28;20473;-29
2022/12/29 05:24:50;;;;;;;6.45;2.00;;;;;;;16.21;58.91;97616.50;5115915;28;20024;-29
2022/12/29 05:27:16;;;;;;;2.90;1.98;;;;;;;16.27;58.54;97618.28;5116329;28;20050;-28
2022/12/29 05:29:41;;;;;;;2.78;1.60;;;;;;;16.22;58.70;97626.25;5116853;28;20356;-29
2022/12/29 05:32:06;;;;;;;2.30;1.85;;;;;;;16.17;58.86;97627.56;5123495;27;20023;-28
2022/12/29 05:34:32;;;;;;;3.78;1.92;;;;;;;16.23;58.84;97627.78;5136939;27;20047;-28
2022/12/29 05:36:57;;;;;;;6.70;2.20;;;;;;;16.25;58.69;97633.59;5116171;27;20016;-28
2022/12/29 05:39:23;;;;;;;4.43;2.05;;;;;;;16.23;58.61;97631.28;5116156;28;20046;-30
2022/12/29 05:41:49;;;;;;;3.38;1.80;;;;;;;16.23;58.81;97628.56;5116257;28;20023;-28
2022/12/29 05:44:14;;;;;;;3.60;1.92;;;;;;;16.22;58.84;97634.47;5116214;28;20027;-29
2022/12/29 05:46:40;;;;;;;3.00;1.90;;;;;;;16.13;59.28;97633.13;5122780;27;20374;-29
2022/12/29 05:49:07;;;;;;;5.15;1.98;;;;;;;16.20;58.86;97634.13;5123157;27;20079;-29
2022/12/29 05:51:32;;;;;;;2.83;1.85;;;;;;;16.20;58.84;97636.88;5116319;28;20015;-29
2022/12/29 05:53:58;;;;;;;2.38;1.80;;;;;;;16.30;58.78;97644.03;5116233;28;20026;-30
2022/12/29 05:56:23;;;;;;;3.65;1.90;;;;;;;16.33;58.34;97640.41;5115795;28;20040;-28
2022/12/29 05:58:49;;;;;;;3.35;1.80;;;;;;;16.25;58.82;97630.88;5129719;27;20115;-29
2022/12/29 06:01:14;;;;;;;3.65;1.77;;;;;;;16.20;58.79;97642.34;5123285;27;20083;-30
2022/12/29 06:03:40;;;;;;;2.60;2.00;;;;;;;16.20;58.93;97637.63;5136129;27;20030;-28
2022/12/29 06:06:05;;;;;;;5.03;1.90;;;;;;;16.14;58.91;97639.38;5122291;27;20019;-28
2022/12/29 06:08:31;;;;;;;4.18;1.95;;;;;;;16.15;58.96;97646.41;5124031;27;20055;-28
2022/12/29 06:10:56;;;;;;;3.33;1.70;;;;;;;16.23;58.94;97642.25;5116143;27;20047;-29
2022/12/29 06:13:22;;;;;;;2.95;1.40;;;;;;;16.24;58.79;97638.31;5136057;27;20027;-28
2022/12/29 06:15:49;;;;;;;3.35;1.50;;;;;;;16.22;58.73;97642.69;5119936;27;20094;-28
2022/12/29 06:18:15;;;;;;;3.20;1.48;;;;;;;16.13;58.85;97635.88;5115615;28;20032;-29
2022/12/29 06:20:40;;;;;;;4.45;1.70;;;;;;;16.20;58.78;97637.63;5097165;28;20492;-28
2022/12/29 06:23:06;;;;;;;4.75;2.00;;;;;;;16.12;58.94;97637.06;5115468;28;20055;-29
2022/12/29 06:25:33;;;;;;;4.47;1.58;;;;;;;16.19;58.96;97646.31;5115131;28;20375;-28
2022/12/29 06:27:59;;;;;;;4.00;1.55;;;;;;;16.26;58.82;97646.09;5115950;28;20475;-28
2022/12/29 06:30:25;;;;;;;2.95;1.45;;;;;;;16.22;58.84;97645.41;5115776;28;20031;-29
2022/12/29 06:32:51;;;;;;;4.55;1.63;;;;;;;16.20;58.85;97637.63;5115400;28;20027;-29
2022/12/29 06:35:16;;;;;;;2.38;1.60;;;;;;;16.19;58.89;97640.81;5116153;28;20060;-28
2022/12/29 06:37:42;;;;;;;3.90;1.60;;;;;;;16.16;58.80;97643.22;5122169;27;20024;-28
2022/12/29 06:40:08;;;;;;;2.08;1.40;;;;;;;16.17;58.92;97644.78;5128708;27;20041;-29
2022/12/29 06:42:33;;;;;;;4.93;1.55;;;;;;;16.13;58.90;97644.09;5114987;28;20083;-29
2022/12/29 06:45:00;;;;;;;3.92;1.42;;;;;;;16.28;58.56;97641.72;5135028;27;20094;-28
2022/12/29 06:47:26;;;;;;;3.22;1.70;;;;;;;16.22;58.76;97648.91;5122647;27;20099;-27
2022/12/29 06:49:51;;;;;;;2.97;1.48;;;;;;;16.19;58.87;97649.03;5121033;27;20153;-28
2022/12/29 06:52:17;;;;;;;3.70;1.35;;;;;;;16.19;58.71;97635.34;5122425;27;20106;-29
2022/12/29 06:54:42;;;;;;;2.78;1.50;;;;;;;16.22;58.72;97639.94;5121002;27;20023;-29
2022/12/29 06:57:08;;;;;;;2.97;1.48;;;;;;;16.26;58.49;97646.09;5122205;27;20071;-28
2022/12/29 06:59:33;;;;;;;2.20;1.50;;;;;;;16.22;58.63;97645.41;5134473;27;20019;-29
2022/12/29 07:01:58;;;;;;;2.47;1.55;;;;;;;16.20;58.71;97643.09;5135148;27;20026;-28
2022/12/29 07:04:24;;;;;;;2.65;1.65;;;;;;;16.23;58.55;97647.72;5129278;27;20111;-29
2022/12/29 07:06:49;;;;;;;4.53;2.05;;;;;;;16.27;58.39;97642.16;5127002;27;20058;-28
2022/12/29 07:09:15;;;;;;;3.55;1.70;;;;;;;16.19;58.81;97646.31;5115801;27;20054;-28
2022/12/29 07:11:40;;;;;;;3.50;1.60;;;;;;;16.21;58.71;97654.81;5114488;28;20051;-28
2022/12/29 07:14:06;;;;;;;3.65;2.00;;;;;;;16.19;58.72;97657.25;5114394;28;20045;-29
2022/12/29 07:16:32;;;;;;;3.67;1.90;;;;;;;16.20;58.74;97653.28;5114699;28;20024;-28
2022/12/29 07:18:59;;;;;;;3.05;1.70;;;;;;;16.25;58.70;97655.50;5114284;28;20447;-29
2022/12/29 07:21:25;;;;;;;2.28;1.80;;;;;;;16.14;58.88;97653.84;5114632;28;20034;-29
2022/12/29 07:23:50;;;;;;;3.20;1.90;;;;;;;16.15;58.70;97658.13;5096023;28;20020;-28
2022/12/29 07:26:18;;;;;;;2.08;1.70;;;;;;;16.12;58.82;97653.50;5114463;28;20051;-29
2022/12/29 07:28:43;;;;;;;4.28;2.10;;;;;;;16.16;58.72;97662.38;5114227;28;20027;-29
2022/12/29 07:31:18;;;;;;;2.75;1.80;;;;;;;16.15;58.81;97665.56;5109182;27;20026;-28
2022/12/29 07:33:45;;;;;;;4.90;2.00;;;;;;;16.22;58.59;97651.66;5120277;27;20023;-29
2022/12/29 07:36:12;;;;;;;3.33;1.80;;;;;;;16.17;58.63;97663.94;5120917;27;20051;-29
2022/12/29 07:38:38;;;;;;;4.85;1.80;;;;;;;16.10;59.01;97655.13;5123235;27;20068;-29
2022/12/29 07:41:04;;;;;;;5.40;2.25;;;;;;;16.17;58.79;97649.47;5115522;27;20110;-28
2022/12/29 07:43:29;;;;;;;3.17;1.85;;;;;;;16.14;58.81;97648.38;5127570;27;20119;-28
2022/12/29 07:45:55;;;;;;;3.88;1.80;;;;;;;16.19;58.58;97649.03;5127741;27;20027;-28
2022/12/29 07:48:20;;;;;;;3.72;1.67;;;;;;;16.24;58.62;97653.97;5127364;27;20380;-28
2022/12/29 07:50:46;;;;;;;2.20;1.60;;;;;;;16.15;58.98;97658.13;5114398;28;20375;-28
2022/12/29 07:53:11;;;;;;;3.85;1.85;;;;;;;16.15;58.78;97657.34;5121031;27;20062;-28
2022/12/29 07:55:37;;;;;;;3.85;1.60;;;;;;;16.20;58.86;97656.03;5117422;28;20047;-30
2022/12/29 07:58:03;;;;;;;2.83;1.92;;;;;;;16.11;58.93;97668.38;5102817;28;20415;-29
2022/12/29 08:00:29;;;;;;;4.00;1.67;;;;;;;16.12;59.04;97664.44;5122597;27;20037;-28
2022/12/29 08:02:54;;;;;;;4.50;2.03;;;;;;;16.09;59.00;97659.06;5112990;28;20376;-30
2022/12/29 08:05:20;;;;;;;2.83;1.75;;;;;;;16.19;58.66;97668.19;5127420;28;20019;-28
2022/12/29 08:07:46;;;;;;;2.90;1.50;;;;;;;16.07;59.14;97667.69;5114672;28;20537;-28
2022/12/29 08:10:13;;;;;;;4.40;1.90;;;;;;;16.14;58.96;97673.00;5113586;28;20051;-29
2022/12/29 08:12:39;;;;;;;3.17;1.75;;;;;;;16.11;59.01;97671.13;5113945;28;20019;-29
2022/12/29 08:15:06;;;;;;;3.28;1.65;;;;;;;16.13;59.13;97668.72;5113860;28;20099;-28
2022/12/29 08:17:31;;;;;;;4.57;2.00;;;;;;;16.17;58.83;97672.13;5113539;28;20038;-29
2022/12/29 08:19:57;;;;;;;4.32;1.63;;;;;;;16.12;59.05;97677.34;5113574;28;20475;-28
2022/12/29 08:22:23;;;;;;;3.85;1.70;;;;;;;16.22;59.01;97683.72;5113908;28;20084;-28
2022/12/29 08:24:48;;;;;;;2.72;1.60;;;;;;;16.09;59.23;97673.50;5128249;28;20027;-28
2022/12/29 08:27:14;;;;;;;3.42;1.63;;;;;;;16.09;59.49;97680.94;5134195;28;20026;-28
2022/12/29 08:29:39;;;;;;;3.35;1.75;;;;;;;15.97;60.04;97679.69;5120779;28;20023;-29
2022/12/29 08:32:05;;;;;;;4.70;1.70;;;;;;;16.06;59.78;97690.03;5113379;28;20472;-28
2022/12/29 08:34:31;;;;;;;5.18;1.70;;;;;;;16.15;59.29;97685.47;5113740;28;20024;-28
2022/12/29 08:36:56;;;;;;;8.60;2.65;;;;;;;16.06;59.75;97685.34;5113725;28;20019;-28
2022/12/29 08:39:22;;;;;;;5.50;2.03;;;;;;;16.08;59.60;97682.91;5113458;28;20106;-29
2022/12/29 08:41:48;;;;;;;4.57;1.92;;;;;;;16.15;59.35;97688.22;5119444;28;20459;-28
2022/12/29 08:44:13;;;;;;;2.30;1.30;;;;;;;16.13;59.47;97676.94;5134328;28;20027;-29
2022/12/29 08:46:39;;;;;;;4.50;1.70;;;;;;;16.06;59.91;97682.59;5114230;28;20420;-29
2022/12/29 08:49:05;;;;;;;3.17;1.70;;;;;;;16.08;59.92;97688.41;5113577;28;20027;-29
2022/12/29 08:51:31;;;;;;;3.40;1.80;;;;;;;16.08;59.89;97688.41;5113917;28;20027;-29
2022/12/29 08:53:56;;;;;;;4.72;1.60;;;;;;;15.99;60.22;97687.47;5111325;28;20102;-28
2022/12/29 08:56:23;;;;;;;2.95;1.65;;;;;;;15.96;60.30;97694.56;5111071;28;20052;-29
2022/12/29 08:58:49;;;;;;;6.97;2.05;;;;;;;16.03;60.15;97688.94;5093038;28;20420;-28
2022/12/29 09:01:15;;;;;;;3.22;1.73;;;;;;;15.98;60.16;97692.19;5115013;28;20391;-29
2022/12/29 09:03:41;;;;;;;3.50;1.52;;;;;;;16.07;59.85;97689.59;5114734;28;20028;-28
2022/12/29 09:06:06;;;;;;;3.45;1.60;;;;;;;16.05;60.03;97693.97;5096450;28;20031;-28
2022/12/29 09:08:32;;;;;;;3.55;1.95;;;;;;;16.16;59.75;97689.75;5115222;27;20034;-28
2022/12/29 09:11:17;;;;;;;2.28;1.75;;;;;;;16.12;60.02;97700.03;5120329;27;20015;-30
2022/12/29 09:13:43;;;;;;;4.20;2.13;;;;;;;15.98;60.53;97697.66;5135117;27;20023;-28
2022/12/29 09:16:09;;;;;;;3.75;1.70;;;;;;;16.02;60.23;97698.34;5126164;27;20433;-28
2022/12/29 09:18:35;;;;;;;4.43;1.70;;;;;;;16.16;59.82;97697.19;5126397;27;20459;-28
2022/12/29 09:21:05;;;;;;;4.57;1.92;;;;;;;16.13;59.83;97704.28;5114639;28;20072;-29
2022/12/29 09:23:31;;;;;;;8.75;2.20;;;;;;;16.04;59.94;97701.41;5114685;27;20026;-29
2022/12/29 09:25:56;;;;;;;3.67;1.90;;;;;;;16.04;60.25;97697.91;5123980;27;20027;-28
2022/12/29 09:28:22;;;;;;;2.40;1.63;;;;;;;16.10;60.07;97696.94;5118247;27;20023;-28
2022/12/29 09:30:48;;;;;;;3.22;1.85;;;;;;;15.94;60.53;97707.19;5114254;28;20536;-28
2022/12/29 09:33:15;;;;;;;3.20;1.90;;;;;;;15.95;60.33;97705.97;5113831;28;20031;-29
2022/12/29 09:35:44;;;;;;;4.47;1.90;;;;;;;16.07;60.16;97697.81;5114197;28;20039;-27
2022/12/29 09:38:10;;;;;;;6.05;2.25;;;;;;;15.95;60.46;97714.94;5127759;27;20023;-29
2022/12/29 09:40:37;;;;;;;10.18;4.82;;;;;;;15.93;60.62;97700.94;5116842;27;20037;-28
2022/12/29 09:43:24;;;;;;;10.88;5.95;;;;;;;15.96;60.50;97705.53;5123110;27;20038;-29
2022/12/29 09:46:03;;;;;;;10.20;5.43;;;;;;;15.98;60.46;97688.69;5117202;27;20031;-28
2022/12/29 09:48:42;;;;;;;10.13;5.97;;;;;;;15.97;60.47;97696.13;5113792;27;20023;-28
2022/12/29 09:51:13;;;;;;;9.85;5.22;;;;;;;16.10;59.97;97693.44;5095180;28;20035;-30
2022/12/29 09:53:44;;;;;;;9.50;5.47;;;;;;;15.99;60.53;97703.91;5113904;28;20154;-30
2022/12/29 09:56:20;;;;;;;8.55;5.15;;;;;;;15.95;60.61;97709.47;5093623;28;20423;-29
2022/12/29 09:58:55;;;;;;;8.68;4.70;;;;;;;15.94;60.77;97697.00;5093109;28;20032;-30
2022/12/29 10:01:32;;;;;;;8.82;4.85;;;;;;;15.98;60.59;97685.94;5093155;28;20016;-29
2022/12/29 10:04:02;;;;;;;7.72;4.50;;;;;;;16.01;60.58;97685.09;5092980;28;20016;-28
2022/12/29 10:06:37;;;;;;;5.55;4.38;;;;;;;15.96;60.51;97688.34;5092069;28;20436;-29
2022/12/29 10:09:17;;;;;;;6.03;3.72;;;;;;;16.01;60.58;97685.09;5093393;28;20501;-28
2022/12/29 10:12:03;;;;;;;6.35;4.03;;;;;;;15.70;61.70;97687.47;5093166;28;20028;-28
2022/12/29 10:14:52;;;;;;;7.68;4.40;;;;;;;15.91;61.06;97683.41;5105028;28;20085;-29
2022/12/29 10:17:40;;;;;;;6.47;3.83;;;;;;;15.98;60.46;97675.78;5092994;28;20024;-29
2022/12/29 10:20:28;;;;;;;7.03;3.70;;;;;;;15.92;61.02;97668.53;5092032;28;20468;-30
2022/12/29 10:22:54;;;;;;;5.70;3.70;;;;;;;15.89;60.86;97667.41;5085971;28;20549;-29
2022/12/29 10:25:23;;;;;;;6.57;3.42;;;;;;;15.92;60.91;97663.81;5092970;28;20039;-29
2022/12/29 10:27:50;;;;;;;4.35;3.08;;;;;;;16.01;60.43;97663.19;5092338;28;20016;-28
2022/12/29 10:30:16;;;;;;;6.53;2.90;;;;;;;16.06;60.47;97665.41;5093036;28;20082;-29
2022/12/29 10:32:54;;;;;;;5.13;2.85;;;;;;;15.93;60.93;97662.63;5092929;28;20032;-28
2022/12/29 10:35:23;;;;;;;5.22;2.63;;;;;;;16.00;60.31;97653.44;5093073;28;20038;-30
2022/12/29 10:38:00;;;;;;;6.03;2.78;;;;;;;15.94;60.98;97669.66;5092867;28;20031;-29
2022/12/29 10:40:32;;;;;;;6.68;3.00;;;;;;;15.81;61.27;97657.88;5104629;28;20488;-28
2022/12/29 10:42:59;;;;;;;7.13;2.95;;;;;;;15.81;61.08;97660.63;5093122;28;20028;-29
2022/12/29 10:45:30;;;;;;;4.15;2.60;;;;;;;15.92;61.04;97649.38;5091103;28;20020;-28
2022/12/29 10:48:11;;;;;;;3.88;2.33;;;;;;;15.95;60.64;97652.00;5092744;28;20411;-28
2022/12/29 10:50:42;;;;;;;4.30;2.45;;;;;;;16.00;60.77;97654.22;5092201;28;20038;-28
2022/12/29 10:53:18;;;;;;;2.90;2.10;;;;;;;16.02;60.53;97651.81;5092473;28;20104;-29
2022/12/29 10:55:44;;;;;;;7.82;2.97;;;;;;;15.96;60.62;97667.22;5099846;28;20040;-28
2022/12/29 10:58:14;;;;;;;4.88;2.63;;;;;;;15.93;60.69;97639.97;5112690;28;20026;-28
2022/12/29 11:00:39;;;;;;;5.32;2.35;;;;;;;15.98;60.77;97645.66;5112537;28;20023;-30
2022/12/29 11:03:18;;;;;;;3.95;2.20;;;;;;;16.05;60.28;97639.25;5112678;27;20119;-30
2022/12/29 11:05:55;;;;;;;6.30;2.65;;;;;;;15.98;60.63;97644.91;5115286;27;20027;-28
2022/12/29 11:08:25;;;;;;;3.83;2.35;;;;;;;16.04;60.36;97645.94;5114661;27;20438;-28
2022/12/29 11:11:00;;;;;;;4.43;2.22;;;;;;;15.86;60.86;97638.19;5114489;27;20471;-29
2022/12/29 11:13:28;;;;;;;2.90;2.05;;;;;;;16.00;60.52;97635.06;5125059;27;20065;-29
2022/12/29 11:15:54;;;;;;;3.70;2.03;;;;;;;16.04;60.38;97626.78;5118300;27;20072;-29
2022/12/29 11:18:21;;;;;;;4.35;2.42;;;;;;;15.98;60.54;97642.16;5131199;27;20023;-29
2022/12/29 11:20:47;;;;;;;3.60;1.88;;;;;;;16.07;60.18;97629.38;5132545;27;20391;-28
2022/12/29 11:23:40;;;;;;;5.13;2.55;;;;;;;16.01;60.20;97617.44;5132255;27;20107;-29
2022/12/29 11:26:22;;;;;;;6.55;3.45;;;;;;;15.98;60.39;97633.97;5112260;28;20042;-29
2022/12/29 11:29:16;;;;;;;5.82;3.33;;;;;;;16.03;59.79;97612.31;5112066;27;20027;-27
2022/12/29 11:31:47;;;;;;;6.43;3.67;;;;;;;16.02;60.29;97629.94;5116335;27;20376;-28
2022/12/29 11:34:33;;;;;;;4.72;3.20;;;;;;;16.09;59.82;97609.81;5111954;28;20027;-28
2022/12/29 11:37:06;;;;;;;5.40;3.40;;;;;;;15.99;60.31;97610.88;5112203;28;20059;-28
2022/12/29 11:39:37;;;;;;;6.20;3.08;;;;;;;16.00;60.27;97617.88;5111734;28;20038;-28
2022/12/29 11:42:09;;;;;;;7.47;3.00;;;;;;;15.96;60.37;97609.75;5124438;27;20083;-28
2022/12/29 11:44:43;;;;;;;5.35;2.92;;;;;;;16.07;59.94;97604.03;5131990;27;20416;-29
2022/12/29 11:47:21;;;;;;;4.85;2.70;;;;;;;15.99;60.20;97597.97;5117765;27;20509;-29
2022/12/29 11:49:53;;;;;;;6.53;2.90;;;;;;;15.97;60.33;97594.13;5111699;27;20030;-27
2022/12/29 11:52:28;;;;;;;5.03;2.60;;;;;;;16.04;60.04;97596.66;5111233;28;20431;-28
2022/12/29 11:54:56;;;;;;;4.28;2.30;;;;;;;16.07;59.79;97574.66;5112218;28;20034;-29
2022/12/29 11:57:24;;;;;;;5.63;2.65;;;;;;;15.97;60.18;97570.25;5132314;27;20058;-28
2022/12/29 11:59:55;;;;;;;3.92;2.30;;;;;;;15.97;60.41;97580.44;5125881;27;20035;-30
2022/12/29 12:02:21;;;;;;;3.50;2.40;;;;;;;16.09;60.15;97577.72;5121382;27;20026;-29
2022/12/29 12:04:50;;;;;;;3.92;2.35;;;;;;;15.94;60.40;97579.34;5111643;28;20028;-28
2022/12/29 12:24:10;;;;;;;2.95;2.00;;;;;;;16.13;59.46;97570.19;5111004;28;20105;-28
2022/12/29 12:26:55;;;;;;;5.75;2.00;;;;;;;15.97;59.94;97556.59;5117302;28;20030;-28
2022/12/29 12:29:28;;;;;;;4.18;2.17;;;;;;;16.04;59.57;97559.13;5111497;28;20039;-29
2022/12/29 12:31:57;;;;;;;;;;;;;;;15.97;60.02;97556.59;5112108;28;20031;-28
2022/12/29 12:34:26;;;;;;;3.92;1.88;;;;;;;15.95;59.71;97564.44;5095969;28;19915;-29
2022/12/29 12:36:59;;;;;;;4.07;1.85;;;;;;;15.96;59.55;97551.53;5097130;28;20019;-30
2022/12/29 12:39:37;;;;;;;3.50;1.65;;;;;;;15.90;59.75;97554.06;5115173;28;20030;-29
2022/12/29 12:42:21;;;;;;;3.15;1.67;;;;;;;15.99;59.58;97551.44;5115579;28;20047;-28
2022/12/29 12:45:24;;;;;;;3.17;1.88;;;;;;;15.76;60.25;97551.72;5115539;27;20121;-29